sensor_id;sensor_type;location;lat;lon;timestamp;P1;durP1;ratioP1;P2;durP2;ratioP2
61383;SDS011;63511;49.346;8.798;2022-09-25T00:01:31;15.82;;;10.48;;
61383;SDS011;63511;49.346;8.798;2022-09-25T00:03:57;17.42;;;10.38;;
61383;SDS011;63511;49.346;8.798;2022-09-25T00:06:25;17.77;;;10.75;;
61383;SDS011;63511;49.346;8.798;2022-09-25T00:08:52;13.30;;;10.18;;
61383;SDS011;63511;49.346;8.798;2022-09-25T00:11:20;13.57;;;9.93;;
61383;SDS011;63511;49.346;8.798;2022-09-25T00:13:54;19.40;;;12.52;;
61383;SDS011;63511;49.346;8.798;2022-09-25T00:16:20;30.55;;;14.38;;
61383;SDS011;63511;49.346;8.798;2022-09-25T00:18:48;20.27;;;12.38;;
61383;SDS011;63511;49.346;8.798;2022-09-25T00:21:32;15.35;;;10.70;;
61383;SDS011;63511;49.346;8.798;2022-09-25T00:24:05;12.75;;;9.43;;
61383;SDS011;63511;49.346;8.798;2022-09-25T00:26:34;16.35;;;10.15;;
61383;SDS011;63511;49.346;8.798;2022-09-25T00:29:01;14.65;;;11.10;;
61383;SDS011;63511;49.346;8.798;2022-09-25T00:31:28;18.42;;;11.80;;
61383;SDS011;63511;49.346;8.798;2022-09-25T00:33:59;21.85;;;13.10;;
61383;SDS011;63511;49.346;8.798;2022-09-25T00:36:26;21.30;;;13.38;;
61383;SDS011;63511;49.346;8.798;2022-09-25T00:38:55;26.50;;;13.60;;
61383;SDS011;63511;49.346;8.798;2022-09-25T00:41:23;29.95;;;16.25;;
61383;SDS011;63511;49.346;8.798;2022-09-25T00:43:51;22.40;;;13.60;;
61383;SDS011;63511;49.346;8.798;2022-09-25T00:46:21;22.45;;;14.23;;
61383;SDS011;63511;49.346;8.798;2022-09-25T00:51:28;21.33;;;14.15;;
61383;SDS011;63511;49.346;8.798;2022-09-25T00:54:05;29.45;;;16.42;;
61383;SDS011;63511;49.346;8.798;2022-09-25T00:56:39;27.02;;;16.30;;
61383;SDS011;63511;49.346;8.798;2022-09-25T00:59:09;21.35;;;13.75;;
61383;SDS011;63511;49.346;8.798;2022-09-25T01:01:38;25.20;;;16.20;;
61383;SDS011;63511;49.346;8.798;2022-09-25T01:04:03;37.47;;;16.40;;
61383;SDS011;63511;49.346;8.798;2022-09-25T01:06:29;27.25;;;16.08;;
61383;SDS011;63511;49.346;8.798;2022-09-25T01:08:56;23.08;;;15.40;;
61383;SDS011;63511;49.346;8.798;2022-09-25T01:11:23;23.63;;;14.77;;
61383;SDS011;63511;49.346;8.798;2022-09-25T01:13:51;18.40;;;12.18;;
61383;SDS011;63511;49.346;8.798;2022-09-25T01:16:27;15.80;;;12.10;;
61383;SDS011;63511;49.346;8.798;2022-09-25T01:19:04;19.77;;;13.20;;
61383;SDS011;63511;49.346;8.798;2022-09-25T01:27:36;18.58;;;13.70;;
61383;SDS011;63511;49.346;8.798;2022-09-25T01:30:08;20.00;;;14.40;;
61383;SDS011;63511;49.346;8.798;2022-09-25T01:32:55;25.27;;;15.57;;
61383;SDS011;63511;49.346;8.798;2022-09-25T01:41:08;16.70;;;12.35;;
61383;SDS011;63511;49.346;8.798;2022-09-25T01:43:35;19.25;;;13.68;;
61383;SDS011;63511;49.346;8.798;2022-09-25T01:46:19;27.15;;;15.30;;
61383;SDS011;63511;49.346;8.798;2022-09-25T01:48:49;23.38;;;14.13;;
61383;SDS011;63511;49.346;8.798;2022-09-25T01:51:32;24.67;;;13.70;;
61383;SDS011;63511;49.346;8.798;2022-09-25T01:54:26;21.75;;;13.77;;
61383;SDS011;63511;49.346;8.798;2022-09-25T01:59:44;21.58;;;13.10;;
61383;SDS011;63511;49.346;8.798;2022-09-25T02:02:14;23.83;;;12.95;;
61383;SDS011;63511;49.346;8.798;2022-09-25T02:07:21;18.60;;;11.68;;
61383;SDS011;63511;49.346;8.798;2022-09-25T02:09:54;23.13;;;12.77;;
61383;SDS011;63511;49.346;8.798;2022-09-25T02:12:36;15.02;;;11.18;;
61383;SDS011;63511;49.346;8.798;2022-09-25T02:17:57;18.15;;;12.23;;
61383;SDS011;63511;49.346;8.798;2022-09-25T02:20:48;19.85;;;12.48;;
61383;SDS011;63511;49.346;8.798;2022-09-25T02:23:21;18.92;;;11.80;;
61383;SDS011;63511;49.346;8.798;2022-09-25T02:26:10;18.70;;;13.20;;
61383;SDS011;63511;49.346;8.798;2022-09-25T02:28:42;15.38;;;11.75;;
61383;SDS011;63511;49.346;8.798;2022-09-25T02:31:09;21.00;;;12.48;;
61383;SDS011;63511;49.346;8.798;2022-09-25T02:33:37;19.88;;;12.00;;
61383;SDS011;63511;49.346;8.798;2022-09-25T02:36:03;17.77;;;12.60;;
61383;SDS011;63511;49.346;8.798;2022-09-25T02:38:30;14.48;;;11.48;;
61383;SDS011;63511;49.346;8.798;2022-09-25T02:49:53;18.92;;;13.68;;
61383;SDS011;63511;49.346;8.798;2022-09-25T02:57:57;15.38;;;11.75;;
61383;SDS011;63511;49.346;8.798;2022-09-25T03:00:30;16.02;;;12.63;;
61383;SDS011;63511;49.346;8.798;2022-09-25T03:03:02;19.05;;;13.18;;
61383;SDS011;63511;49.346;8.798;2022-09-25T03:05:31;21.58;;;13.57;;
61383;SDS011;63511;49.346;8.798;2022-09-25T03:07:58;20.08;;;14.30;;
61383;SDS011;63511;49.346;8.798;2022-09-25T03:10:42;24.75;;;14.77;;
61383;SDS011;63511;49.346;8.798;2022-09-25T03:15:46;19.48;;;12.68;;
61383;SDS011;63511;49.346;8.798;2022-09-25T03:18:16;14.95;;;11.77;;
61383;SDS011;63511;49.346;8.798;2022-09-25T03:20:41;19.80;;;13.50;;
61383;SDS011;63511;49.346;8.798;2022-09-25T03:23:07;21.92;;;14.25;;
61383;SDS011;63511;49.346;8.798;2022-09-25T03:25:32;20.10;;;14.52;;
61383;SDS011;63511;49.346;8.798;2022-09-25T03:27:58;26.50;;;16.15;;
61383;SDS011;63511;49.346;8.798;2022-09-25T03:30:24;23.65;;;15.35;;
61383;SDS011;63511;49.346;8.798;2022-09-25T03:32:55;21.80;;;14.38;;
61383;SDS011;63511;49.346;8.798;2022-09-25T03:35:23;22.13;;;14.93;;
61383;SDS011;63511;49.346;8.798;2022-09-25T03:37:48;22.77;;;14.73;;
61383;SDS011;63511;49.346;8.798;2022-09-25T03:40:16;21.65;;;14.48;;
61383;SDS011;63511;49.346;8.798;2022-09-25T03:42:41;17.73;;;12.57;;
61383;SDS011;63511;49.346;8.798;2022-09-25T03:45:09;20.30;;;14.25;;
61383;SDS011;63511;49.346;8.798;2022-09-25T03:47:36;18.67;;;14.07;;
61383;SDS011;63511;49.346;8.798;2022-09-25T03:50:04;25.15;;;14.48;;
61383;SDS011;63511;49.346;8.798;2022-09-25T03:52:34;18.70;;;14.00;;
61383;SDS011;63511;49.346;8.798;2022-09-25T03:55:05;22.00;;;17.27;;
61383;SDS011;63511;49.346;8.798;2022-09-25T03:57:33;23.50;;;16.17;;
61383;SDS011;63511;49.346;8.798;2022-09-25T03:59:58;26.98;;;18.83;;
61383;SDS011;63511;49.346;8.798;2022-09-25T04:02:28;25.33;;;17.92;;
61383;SDS011;63511;49.346;8.798;2022-09-25T04:04:54;28.30;;;18.17;;
61383;SDS011;63511;49.346;8.798;2022-09-25T04:07:23;28.00;;;18.15;;
61383;SDS011;63511;49.346;8.798;2022-09-25T04:09:51;31.13;;;19.00;;
61383;SDS011;63511;49.346;8.798;2022-09-25T04:12:19;22.73;;;16.58;;
61383;SDS011;63511;49.346;8.798;2022-09-25T04:14:45;28.13;;;16.98;;
61383;SDS011;63511;49.346;8.798;2022-09-25T04:17:10;25.75;;;17.40;;
61383;SDS011;63511;49.346;8.798;2022-09-25T04:19:38;26.73;;;16.95;;
61383;SDS011;63511;49.346;8.798;2022-09-25T04:22:04;25.45;;;16.95;;
61383;SDS011;63511;49.346;8.798;2022-09-25T04:24:29;24.40;;;16.90;;
61383;SDS011;63511;49.346;8.798;2022-09-25T04:27:13;20.90;;;15.48;;
61383;SDS011;63511;49.346;8.798;2022-09-25T04:29:43;24.58;;;16.83;;
61383;SDS011;63511;49.346;8.798;2022-09-25T04:32:09;23.70;;;16.73;;
61383;SDS011;63511;49.346;8.798;2022-09-25T04:34:52;24.50;;;15.35;;
61383;SDS011;63511;49.346;8.798;2022-09-25T04:37:20;20.42;;;15.13;;
61383;SDS011;63511;49.346;8.798;2022-09-25T04:39:50;18.30;;;13.23;;
61383;SDS011;63511;49.346;8.798;2022-09-25T04:42:17;25.45;;;14.32;;
61383;SDS011;63511;49.346;8.798;2022-09-25T04:44:48;22.15;;;14.25;;
61383;SDS011;63511;49.346;8.798;2022-09-25T04:47:13;18.20;;;14.05;;
61383;SDS011;63511;49.346;8.798;2022-09-25T04:49:38;24.27;;;14.75;;
61383;SDS011;63511;49.346;8.798;2022-09-25T04:52:06;20.60;;;14.85;;
61383;SDS011;63511;49.346;8.798;2022-09-25T04:54:31;26.13;;;17.30;;
61383;SDS011;63511;49.346;8.798;2022-09-25T04:56:56;25.58;;;16.45;;
61383;SDS011;63511;49.346;8.798;2022-09-25T04:59:22;19.80;;;14.63;;
61383;SDS011;63511;49.346;8.798;2022-09-25T05:01:49;22.95;;;15.45;;
61383;SDS011;63511;49.346;8.798;2022-09-25T05:04:17;25.88;;;16.15;;
61383;SDS011;63511;49.346;8.798;2022-09-25T05:06:44;20.90;;;15.20;;
61383;SDS011;63511;49.346;8.798;2022-09-25T05:09:09;25.85;;;16.15;;
61383;SDS011;63511;49.346;8.798;2022-09-25T05:11:36;24.30;;;15.07;;
61383;SDS011;63511;49.346;8.798;2022-09-25T05:14:02;20.50;;;14.48;;
61383;SDS011;63511;49.346;8.798;2022-09-25T05:16:27;21.27;;;15.13;;
61383;SDS011;63511;49.346;8.798;2022-09-25T05:18:54;21.00;;;15.57;;
61383;SDS011;63511;49.346;8.798;2022-09-25T05:21:20;23.38;;;15.32;;
61383;SDS011;63511;49.346;8.798;2022-09-25T05:23:48;24.10;;;16.20;;
61383;SDS011;63511;49.346;8.798;2022-09-25T05:26:15;21.17;;;15.25;;
61383;SDS011;63511;49.346;8.798;2022-09-25T05:28:47;21.88;;;16.00;;
61383;SDS011;63511;49.346;8.798;2022-09-25T05:31:12;26.25;;;16.65;;
61383;SDS011;63511;49.346;8.798;2022-09-25T05:33:40;24.83;;;16.45;;
61383;SDS011;63511;49.346;8.798;2022-09-25T05:36:07;34.22;;;19.10;;
61383;SDS011;63511;49.346;8.798;2022-09-25T05:38:34;25.42;;;16.92;;
61383;SDS011;63511;49.346;8.798;2022-09-25T05:41:01;24.75;;;15.98;;
61383;SDS011;63511;49.346;8.798;2022-09-25T05:43:31;24.65;;;17.00;;
61383;SDS011;63511;49.346;8.798;2022-09-25T05:46:01;25.27;;;15.85;;
61383;SDS011;63511;49.346;8.798;2022-09-25T05:48:27;24.73;;;16.92;;
61383;SDS011;63511;49.346;8.798;2022-09-25T05:50:55;21.85;;;17.10;;
61383;SDS011;63511;49.346;8.798;2022-09-25T05:53:24;26.92;;;16.73;;
61383;SDS011;63511;49.346;8.798;2022-09-25T05:56:00;23.20;;;16.02;;
61383;SDS011;63511;49.346;8.798;2022-09-25T05:58:29;36.63;;;17.17;;
61383;SDS011;63511;49.346;8.798;2022-09-25T06:01:00;25.07;;;16.37;;
61383;SDS011;63511;49.346;8.798;2022-09-25T06:03:30;24.48;;;16.90;;
61383;SDS011;63511;49.346;8.798;2022-09-25T06:05:56;29.35;;;17.75;;
61383;SDS011;63511;49.346;8.798;2022-09-25T06:08:25;26.10;;;16.95;;
61383;SDS011;63511;49.346;8.798;2022-09-25T06:10:51;28.08;;;17.15;;
61383;SDS011;63511;49.346;8.798;2022-09-25T06:13:18;24.88;;;17.58;;
61383;SDS011;63511;49.346;8.798;2022-09-25T06:15:46;23.20;;;16.98;;
61383;SDS011;63511;49.346;8.798;2022-09-25T06:18:14;20.13;;;16.13;;
61383;SDS011;63511;49.346;8.798;2022-09-25T06:20:42;25.20;;;17.92;;
61383;SDS011;63511;49.346;8.798;2022-09-25T06:23:07;24.08;;;17.05;;
61383;SDS011;63511;49.346;8.798;2022-09-25T06:25:33;22.50;;;17.23;;
61383;SDS011;63511;49.346;8.798;2022-09-25T06:27:59;24.70;;;18.00;;
61383;SDS011;63511;49.346;8.798;2022-09-25T06:30:32;22.05;;;17.13;;
61383;SDS011;63511;49.346;8.798;2022-09-25T06:32:59;24.10;;;16.58;;
61383;SDS011;63511;49.346;8.798;2022-09-25T06:35:28;23.48;;;15.90;;
61383;SDS011;63511;49.346;8.798;2022-09-25T06:37:57;27.70;;;17.25;;
61383;SDS011;63511;49.346;8.798;2022-09-25T06:40:23;26.25;;;16.50;;
61383;SDS011;63511;49.346;8.798;2022-09-25T06:42:59;25.10;;;16.60;;
61383;SDS011;63511;49.346;8.798;2022-09-25T06:45:29;22.58;;;15.55;;
61383;SDS011;63511;49.346;8.798;2022-09-25T06:48:00;22.08;;;14.05;;
61383;SDS011;63511;49.346;8.798;2022-09-25T06:50:28;18.00;;;13.95;;
61383;SDS011;63511;49.346;8.798;2022-09-25T06:52:57;17.30;;;13.13;;
61383;SDS011;63511;49.346;8.798;2022-09-25T06:55:26;19.63;;;14.75;;
61383;SDS011;63511;49.346;8.798;2022-09-25T06:57:55;16.08;;;12.48;;
61383;SDS011;63511;49.346;8.798;2022-09-25T07:00:22;20.23;;;14.07;;
61383;SDS011;63511;49.346;8.798;2022-09-25T07:02:50;27.15;;;15.10;;
61383;SDS011;63511;49.346;8.798;2022-09-25T07:05:34;18.33;;;13.85;;
61383;SDS011;63511;49.346;8.798;2022-09-25T07:07:59;23.70;;;15.98;;
61383;SDS011;63511;49.346;8.798;2022-09-25T07:10:27;22.48;;;16.52;;
61383;SDS011;63511;49.346;8.798;2022-09-25T07:12:53;20.90;;;15.23;;
61383;SDS011;63511;49.346;8.798;2022-09-25T07:15:20;22.23;;;16.30;;
61383;SDS011;63511;49.346;8.798;2022-09-25T07:17:46;23.35;;;16.15;;
61383;SDS011;63511;49.346;8.798;2022-09-25T07:20:14;20.95;;;15.88;;
61383;SDS011;63511;49.346;8.798;2022-09-25T07:22:41;19.52;;;14.40;;
61383;SDS011;63511;49.346;8.798;2022-09-25T07:25:07;22.52;;;15.13;;
61383;SDS011;63511;49.346;8.798;2022-09-25T07:27:34;19.63;;;14.77;;
61383;SDS011;63511;49.346;8.798;2022-09-25T07:30:00;24.95;;;14.27;;
61383;SDS011;63511;49.346;8.798;2022-09-25T07:32:29;25.42;;;14.90;;
61383;SDS011;63511;49.346;8.798;2022-09-25T07:34:57;18.00;;;14.80;;
61383;SDS011;63511;49.346;8.798;2022-09-25T07:37:22;20.17;;;14.20;;
61383;SDS011;63511;49.346;8.798;2022-09-25T07:39:50;17.83;;;12.52;;
61383;SDS011;63511;49.346;8.798;2022-09-25T07:42:16;16.30;;;12.75;;
61383;SDS011;63511;49.346;8.798;2022-09-25T07:44:42;14.10;;;11.07;;
61383;SDS011;63511;49.346;8.798;2022-09-25T07:47:07;14.93;;;12.27;;
61383;SDS011;63511;49.346;8.798;2022-09-25T07:49:35;18.58;;;14.13;;
61383;SDS011;63511;49.346;8.798;2022-09-25T07:52:00;18.15;;;13.35;;
61383;SDS011;63511;49.346;8.798;2022-09-25T07:54:27;16.42;;;12.82;;
61383;SDS011;63511;49.346;8.798;2022-09-25T07:56:52;16.42;;;13.45;;
61383;SDS011;63511;49.346;8.798;2022-09-25T07:59:20;17.55;;;13.45;;
61383;SDS011;63511;49.346;8.798;2022-09-25T08:01:47;19.23;;;15.02;;
61383;SDS011;63511;49.346;8.798;2022-09-25T08:04:13;17.95;;;13.73;;
61383;SDS011;63511;49.346;8.798;2022-09-25T08:06:38;18.38;;;14.57;;
61383;SDS011;63511;49.346;8.798;2022-09-25T08:09:03;24.02;;;16.27;;
61383;SDS011;63511;49.346;8.798;2022-09-25T08:11:32;17.45;;;13.05;;
61383;SDS011;63511;49.346;8.798;2022-09-25T08:14:00;18.92;;;14.48;;
61383;SDS011;63511;49.346;8.798;2022-09-25T08:16:27;21.95;;;15.35;;
61383;SDS011;63511;49.346;8.798;2022-09-25T08:18:52;20.45;;;15.98;;
61383;SDS011;63511;49.346;8.798;2022-09-25T08:21:22;18.58;;;14.18;;
61383;SDS011;63511;49.346;8.798;2022-09-25T08:23:51;16.75;;;13.63;;
61383;SDS011;63511;49.346;8.798;2022-09-25T08:26:20;19.00;;;13.30;;
61383;SDS011;63511;49.346;8.798;2022-09-25T08:28:49;17.33;;;14.32;;
61383;SDS011;63511;49.346;8.798;2022-09-25T08:31:15;19.15;;;14.80;;
61383;SDS011;63511;49.346;8.798;2022-09-25T08:33:44;18.67;;;12.57;;
61383;SDS011;63511;49.346;8.798;2022-09-25T08:36:10;14.48;;;11.60;;
61383;SDS011;63511;49.346;8.798;2022-09-25T08:38:38;14.77;;;12.18;;
61383;SDS011;63511;49.346;8.798;2022-09-25T08:43:39;14.57;;;11.95;;
61383;SDS011;63511;49.346;8.798;2022-09-25T08:46:17;15.57;;;11.30;;
61383;SDS011;63511;49.346;8.798;2022-09-25T08:49:06;11.90;;;10.45;;
61383;SDS011;63511;49.346;8.798;2022-09-25T08:51:45;12.05;;;10.27;;
61383;SDS011;63511;49.346;8.798;2022-09-25T08:54:31;12.07;;;10.52;;
61383;SDS011;63511;49.346;8.798;2022-09-25T08:57:15;16.13;;;11.05;;
61383;SDS011;63511;49.346;8.798;2022-09-25T08:59:55;11.38;;;9.50;;
61383;SDS011;63511;49.346;8.798;2022-09-25T09:02:29;13.15;;;11.18;;
61383;SDS011;63511;49.346;8.798;2022-09-25T09:05:02;11.73;;;9.93;;
61383;SDS011;63511;49.346;8.798;2022-09-25T09:07:35;13.77;;;11.48;;
61383;SDS011;63511;49.346;8.798;2022-09-25T09:12:49;14.82;;;12.10;;
61383;SDS011;63511;49.346;8.798;2022-09-25T09:18:27;15.32;;;12.50;;
61383;SDS011;63511;49.346;8.798;2022-09-25T09:20:56;13.55;;;10.80;;
61383;SDS011;63511;49.346;8.798;2022-09-25T09:23:23;12.85;;;10.85;;
61383;SDS011;63511;49.346;8.798;2022-09-25T09:26:00;14.75;;;11.90;;
61383;SDS011;63511;49.346;8.798;2022-09-25T09:32:15;15.40;;;11.88;;
61383;SDS011;63511;49.346;8.798;2022-09-25T09:40:15;17.63;;;14.60;;
61383;SDS011;63511;49.346;8.798;2022-09-25T09:42:51;19.90;;;14.68;;
61383;SDS011;63511;49.346;8.798;2022-09-25T09:50:55;16.08;;;13.48;;
61383;SDS011;63511;49.346;8.798;2022-09-25T09:55:55;16.55;;;12.45;;
61383;SDS011;63511;49.346;8.798;2022-09-25T10:01:07;14.43;;;11.95;;
61383;SDS011;63511;49.346;8.798;2022-09-25T10:03:36;15.88;;;12.68;;
61383;SDS011;63511;49.346;8.798;2022-09-25T10:06:13;15.25;;;10.50;;
61383;SDS011;63511;49.346;8.798;2022-09-25T10:08:43;15.45;;;11.40;;
61383;SDS011;63511;49.346;8.798;2022-09-25T10:11:13;16.05;;;10.70;;
61383;SDS011;63511;49.346;8.798;2022-09-25T10:13:41;12.00;;;10.50;;
61383;SDS011;63511;49.346;8.798;2022-09-25T10:16:20;13.35;;;10.27;;
61383;SDS011;63511;49.346;8.798;2022-09-25T10:18:50;12.55;;;9.32;;
61383;SDS011;63511;49.346;8.798;2022-09-25T10:21:21;12.95;;;10.15;;
61383;SDS011;63511;49.346;8.798;2022-09-25T10:23:53;10.80;;;9.07;;
61383;SDS011;63511;49.346;8.798;2022-09-25T10:26:36;10.55;;;8.57;;
61383;SDS011;63511;49.346;8.798;2022-09-25T10:29:03;9.85;;;8.50;;
61383;SDS011;63511;49.346;8.798;2022-09-25T10:31:30;10.10;;;8.07;;
61383;SDS011;63511;49.346;8.798;2022-09-25T10:39:25;9.05;;;6.68;;
61383;SDS011;63511;49.346;8.798;2022-09-25T10:41:54;7.25;;;6.55;;
61383;SDS011;63511;49.346;8.798;2022-09-25T10:44:35;6.75;;;5.53;;
61383;SDS011;63511;49.346;8.798;2022-09-25T10:52:48;6.95;;;5.35;;
61383;SDS011;63511;49.346;8.798;2022-09-25T10:55:28;6.13;;;5.03;;
61383;SDS011;63511;49.346;8.798;2022-09-25T10:58:13;6.25;;;5.03;;
61383;SDS011;63511;49.346;8.798;2022-09-25T11:05:51;5.97;;;5.03;;
61383;SDS011;63511;49.346;8.798;2022-09-25T11:08:21;5.78;;;4.85;;
61383;SDS011;63511;49.346;8.798;2022-09-25T11:10:52;5.88;;;3.92;;
61383;SDS011;63511;49.346;8.798;2022-09-25T11:13:26;4.40;;;3.72;;
61383;SDS011;63511;49.346;8.798;2022-09-25T11:16:01;4.68;;;4.10;;
61383;SDS011;63511;49.346;8.798;2022-09-25T11:18:33;4.85;;;4.35;;
61383;SDS011;63511;49.346;8.798;2022-09-25T11:21:03;4.47;;;3.63;;
61383;SDS011;63511;49.346;8.798;2022-09-25T11:23:34;4.25;;;3.85;;
61383;SDS011;63511;49.346;8.798;2022-09-25T11:26:07;5.30;;;3.83;;
61383;SDS011;63511;49.346;8.798;2022-09-25T11:28:50;8.20;;;4.05;;
61383;SDS011;63511;49.346;8.798;2022-09-25T11:31:30;5.95;;;4.63;;
61383;SDS011;63511;49.346;8.798;2022-09-25T11:36:49;5.80;;;3.45;;
61383;SDS011;63511;49.346;8.798;2022-09-25T11:42:51;3.35;;;2.67;;
61383;SDS011;63511;49.346;8.798;2022-09-25T11:45:46;3.35;;;3.05;;
61383;SDS011;63511;49.346;8.798;2022-09-25T12:02:36;5.68;;;3.22;;
61383;SDS011;63511;49.346;8.798;2022-09-25T12:08:06;3.97;;;3.05;;
61383;SDS011;63511;49.346;8.798;2022-09-25T12:16:35;3.22;;;2.83;;
61383;SDS011;63511;49.346;8.798;2022-09-25T12:19:24;5.00;;;2.63;;
61383;SDS011;63511;49.346;8.798;2022-09-25T12:24:25;3.53;;;2.22;;
61383;SDS011;63511;49.346;8.798;2022-09-25T12:38:04;2.08;;;1.83;;
61383;SDS011;63511;49.346;8.798;2022-09-25T12:40:41;2.55;;;2.35;;
61383;SDS011;63511;49.346;8.798;2022-09-25T12:43:23;3.00;;;2.58;;
61383;SDS011;63511;49.346;8.798;2022-09-25T12:45:59;5.70;;;2.55;;
61383;SDS011;63511;49.346;8.798;2022-09-25T12:51:42;2.70;;;2.15;;
61383;SDS011;63511;49.346;8.798;2022-09-25T13:07:21;2.10;;;1.90;;
61383;SDS011;63511;49.346;8.798;2022-09-25T13:09:49;2.08;;;1.80;;
61383;SDS011;63511;49.346;8.798;2022-09-25T13:12:23;2.38;;;1.83;;
61383;SDS011;63511;49.346;8.798;2022-09-25T13:15:00;2.20;;;2.00;;
61383;SDS011;63511;49.346;8.798;2022-09-25T13:17:36;3.92;;;2.10;;
61383;SDS011;63511;49.346;8.798;2022-09-25T13:25:23;2.00;;;1.80;;
61383;SDS011;63511;49.346;8.798;2022-09-25T13:27:49;2.03;;;1.83;;
61383;SDS011;63511;49.346;8.798;2022-09-25T13:30:22;2.08;;;1.88;;
61383;SDS011;63511;49.346;8.798;2022-09-25T13:32:55;2.92;;;1.98;;
61383;SDS011;63511;49.346;8.798;2022-09-25T13:35:23;2.45;;;1.70;;
61383;SDS011;63511;49.346;8.798;2022-09-25T13:37:50;3.55;;;1.65;;
61383;SDS011;63511;49.346;8.798;2022-09-25T13:40:19;2.75;;;2.10;;
61383;SDS011;63511;49.346;8.798;2022-09-25T13:43:19;2.03;;;1.83;;
61383;SDS011;63511;49.346;8.798;2022-09-25T13:45:45;1.80;;;1.70;;
61383;SDS011;63511;49.346;8.798;2022-09-25T13:54:23;2.33;;;1.70;;
61383;SDS011;63511;49.346;8.798;2022-09-25T13:56:52;1.52;;;1.42;;
61383;SDS011;63511;49.346;8.798;2022-09-25T13:59:22;2.58;;;2.00;;
61383;SDS011;63511;49.346;8.798;2022-09-25T14:02:25;5.28;;;2.13;;
61383;SDS011;63511;49.346;8.798;2022-09-25T14:04:55;2.22;;;2.03;;
61383;SDS011;63511;49.346;8.798;2022-09-25T14:07:22;2.38;;;1.92;;
61383;SDS011;63511;49.346;8.798;2022-09-25T14:09:51;3.55;;;2.00;;
61383;SDS011;63511;49.346;8.798;2022-09-25T14:14:56;6.78;;;2.72;;
61383;SDS011;63511;49.346;8.798;2022-09-25T14:17:26;2.97;;;2.67;;
61383;SDS011;63511;49.346;8.798;2022-09-25T14:19:56;3.03;;;2.40;;
61383;SDS011;63511;49.346;8.798;2022-09-25T14:22:34;3.00;;;2.53;;
61383;SDS011;63511;49.346;8.798;2022-09-25T14:25:00;3.33;;;2.60;;
61383;SDS011;63511;49.346;8.798;2022-09-25T14:27:28;2.97;;;2.65;;
61383;SDS011;63511;49.346;8.798;2022-09-25T14:30:04;3.67;;;3.20;;
61383;SDS011;63511;49.346;8.798;2022-09-25T14:35:39;3.85;;;2.80;;
61383;SDS011;63511;49.346;8.798;2022-09-25T14:41:25;2.72;;;2.33;;
61383;SDS011;63511;49.346;8.798;2022-09-25T14:46:21;5.25;;;3.65;;
61383;SDS011;63511;49.346;8.798;2022-09-25T14:48:55;6.53;;;4.15;;
61383;SDS011;63511;49.346;8.798;2022-09-25T14:51:27;14.73;;;5.70;;
61383;SDS011;63511;49.346;8.798;2022-09-25T14:54:04;4.57;;;4.07;;
61383;SDS011;63511;49.346;8.798;2022-09-25T14:56:31;9.77;;;5.13;;
61383;SDS011;63511;49.346;8.798;2022-09-25T14:59:04;9.07;;;5.45;;
61383;SDS011;63511;49.346;8.798;2022-09-25T15:01:34;9.55;;;5.97;;
61383;SDS011;63511;49.346;8.798;2022-09-25T15:04:08;9.00;;;6.28;;
61383;SDS011;63511;49.346;8.798;2022-09-25T15:06:35;7.40;;;6.20;;
61383;SDS011;63511;49.346;8.798;2022-09-25T15:17:26;10.02;;;6.60;;
61383;SDS011;63511;49.346;8.798;2022-09-25T15:19:58;10.18;;;7.88;;
61383;SDS011;63511;49.346;8.798;2022-09-25T15:22:33;10.68;;;8.30;;
61383;SDS011;63511;49.346;8.798;2022-09-25T15:25:06;8.82;;;7.68;;
61383;SDS011;63511;49.346;8.798;2022-09-25T15:27:39;15.25;;;8.15;;
61383;SDS011;63511;49.346;8.798;2022-09-25T15:30:17;14.68;;;7.80;;
61383;SDS011;63511;49.346;8.798;2022-09-25T15:32:45;11.77;;;8.20;;
61383;SDS011;63511;49.346;8.798;2022-09-25T15:35:13;10.70;;;8.07;;
61383;SDS011;63511;49.346;8.798;2022-09-25T15:37:46;12.00;;;8.30;;
61383;SDS011;63511;49.346;8.798;2022-09-25T15:48:03;12.80;;;8.48;;
61383;SDS011;63511;49.346;8.798;2022-09-25T15:50:33;12.02;;;8.77;;
61383;SDS011;63511;49.346;8.798;2022-09-25T15:53:13;13.82;;;10.13;;
61383;SDS011;63511;49.346;8.798;2022-09-25T15:55:44;13.10;;;9.00;;
61383;SDS011;63511;49.346;8.798;2022-09-25T15:58:11;16.67;;;9.27;;
61383;SDS011;63511;49.346;8.798;2022-09-25T16:00:43;11.93;;;8.35;;
61383;SDS011;63511;49.346;8.798;2022-09-25T16:03:38;16.17;;;8.80;;
61383;SDS011;63511;49.346;8.798;2022-09-25T16:06:49;13.75;;;8.57;;
61383;SDS011;63511;49.346;8.798;2022-09-25T16:09:31;9.10;;;6.97;;
61383;SDS011;63511;49.346;8.798;2022-09-25T16:12:10;12.20;;;7.10;;
61383;SDS011;63511;49.346;8.798;2022-09-25T16:14:42;9.68;;;7.20;;
61383;SDS011;63511;49.346;8.798;2022-09-25T16:17:14;10.07;;;7.53;;
61383;SDS011;63511;49.346;8.798;2022-09-25T16:19:46;9.57;;;5.63;;
61383;SDS011;63511;49.346;8.798;2022-09-25T16:22:24;7.82;;;5.13;;
61383;SDS011;63511;49.346;8.798;2022-09-25T16:24:51;9.45;;;5.95;;
61383;SDS011;63511;49.346;8.798;2022-09-25T16:27:23;7.93;;;4.88;;
61383;SDS011;63511;49.346;8.798;2022-09-25T16:29:54;6.35;;;4.50;;
61383;SDS011;63511;49.346;8.798;2022-09-25T16:32:22;10.02;;;5.20;;
61383;SDS011;63511;49.346;8.798;2022-09-25T16:34:56;8.85;;;4.85;;
61383;SDS011;63511;49.346;8.798;2022-09-25T16:37:30;6.78;;;4.28;;
61383;SDS011;63511;49.346;8.798;2022-09-25T16:42:42;7.05;;;4.72;;
61383;SDS011;63511;49.346;8.798;2022-09-25T16:45:18;6.47;;;5.00;;
61383;SDS011;63511;49.346;8.798;2022-09-25T16:47:47;7.55;;;5.00;;
61383;SDS011;63511;49.346;8.798;2022-09-25T16:50:13;7.78;;;5.00;;
61383;SDS011;63511;49.346;8.798;2022-09-25T16:52:39;7.22;;;5.15;;
61383;SDS011;63511;49.346;8.798;2022-09-25T16:55:15;8.05;;;5.30;;
61383;SDS011;63511;49.346;8.798;2022-09-25T16:57:43;14.95;;;5.47;;
61383;SDS011;63511;49.346;8.798;2022-09-25T17:00:13;7.25;;;5.65;;
61383;SDS011;63511;49.346;8.798;2022-09-25T17:02:46;12.48;;;5.38;;
61383;SDS011;63511;49.346;8.798;2022-09-25T17:05:18;14.10;;;6.13;;
61383;SDS011;63511;49.346;8.798;2022-09-25T17:07:54;13.13;;;5.28;;
61383;SDS011;63511;49.346;8.798;2022-09-25T17:10:24;18.00;;;5.68;;
61383;SDS011;63511;49.346;8.798;2022-09-25T17:12:53;11.20;;;5.18;;
61383;SDS011;63511;49.346;8.798;2022-09-25T17:17:53;11.40;;;5.72;;
61383;SDS011;63511;49.346;8.798;2022-09-25T17:20:22;12.80;;;4.95;;
61383;SDS011;63511;49.346;8.798;2022-09-25T17:22:49;16.40;;;6.95;;
61383;SDS011;63511;49.346;8.798;2022-09-25T17:28:00;13.50;;;4.90;;
61383;SDS011;63511;49.346;8.798;2022-09-25T17:30:27;10.32;;;5.00;;
61383;SDS011;63511;49.346;8.798;2022-09-25T17:32:52;18.02;;;5.50;;
61383;SDS011;63511;49.346;8.798;2022-09-25T17:35:26;7.38;;;4.20;;
61383;SDS011;63511;49.346;8.798;2022-09-25T17:37:57;7.53;;;5.13;;
61383;SDS011;63511;49.346;8.798;2022-09-25T17:40:24;8.65;;;4.05;;
61383;SDS011;63511;49.346;8.798;2022-09-25T17:42:52;11.48;;;4.22;;
61383;SDS011;63511;49.346;8.798;2022-09-25T17:45:31;15.05;;;4.85;;
61383;SDS011;63511;49.346;8.798;2022-09-25T17:48:04;11.80;;;4.82;;
61383;SDS011;63511;49.346;8.798;2022-09-25T17:50:29;8.43;;;3.90;;
61383;SDS011;63511;49.346;8.798;2022-09-25T17:52:56;11.27;;;4.65;;
61383;SDS011;63511;49.346;8.798;2022-09-25T17:55:24;7.90;;;3.75;;
61383;SDS011;63511;49.346;8.798;2022-09-25T17:57:53;8.18;;;4.35;;
61383;SDS011;63511;49.346;8.798;2022-09-25T18:00:20;8.45;;;3.80;;
61383;SDS011;63511;49.346;8.798;2022-09-25T18:02:45;11.02;;;5.22;;